Time;durP1;ratioP1;P1;durP2;ratioP2;P2;SDS_P1;SDS_P2;PMS_P1;PMS_P2;Temp;Humidity;BMP_temperature;BMP_pressure;BME280_temperature;BME280_humidity;BME280_pressure;Samples;Min_cycle;Max_cycle;Signal;HPM_P1;HPM_P2
2021/12/01 08:17:25;;;;;;;1.45;0.90;;;;;;;4.25;79.90;96231.56;10535474;27;2437563;-77
2021/12/01 08:22:50;;;;;;;1.30;0.70;;;;;;;4.46;79.79;96233.63;10521069;28;20044;-78
2021/12/01 08:28:11;;;;;;;1.50;0.65;;;;;;;4.68;79.53;96243.38;10546768;28;20048;-77
2021/12/01 08:33:33;;;;;;;1.38;0.70;;;;;;;4.77;79.28;96226.00;10546728;28;20036;-78
2021/12/01 08:38:54;;;;;;;1.10;0.57;;;;;;;4.89;78.88;96221.25;10546932;28;20149;-78
2021/12/01 08:44:18;;;;;;;1.60;0.70;;;;;;;5.01;78.44;96201.22;10532604;28;20401;-77
2021/12/01 08:49:39;;;;;;;0.85;0.70;;;;;;;5.10;78.63;96206.69;10532763;28;20557;-77
2021/12/01 08:55:03;;;;;;;1.00;0.50;;;;;;;5.16;78.17;96195.28;10529909;28;20528;-78
2021/12/01 09:00:35;;;;;;;1.13;0.60;;;;;;;5.31;77.70;96235.66;10533563;28;20047;-78
2021/12/01 09:05:56;;;;;;;1.35;0.70;;;;;;;5.33;77.61;96211.59;10532799;28;20043;-78
2021/12/01 09:11:18;;;;;;;1.80;0.70;;;;;;;5.38;77.48;96218.81;10533593;28;20477;-78
2021/12/01 09:16:42;;;;;;;2.67;0.73;;;;;;;5.38;76.71;96207.75;10490046;28;20064;-78
2021/12/01 09:22:35;;;;;;;3.88;1.30;;;;;;;5.40;76.98;96188.53;10512768;28;20045;-78
2021/12/01 09:28:00;;;;;;;1.30;0.70;;;;;;;5.44;76.87;96193.56;10493900;28;20041;-79
2021/12/01 09:33:51;;;;;;;1.65;0.60;;;;;;;5.50;76.51;96171.06;10474305;28;20562;-79
2021/12/01 09:39:13;;;;;;;2.58;0.77;;;;;;;5.48;76.08;96199.34;10475871;28;20395;-78
2021/12/01 09:44:36;;;;;;;1.83;0.82;;;;;;;5.52;75.71;96201.66;10489874;28;20044;-77
2021/12/01 09:50:27;;;;;;;0.80;0.60;;;;;;;5.56;75.83;96191.53;10483967;28;20425;-79
2021/12/01 09:56:25;;;;;;;0.93;0.50;;;;;;;5.64;75.69;96180.25;10482414;28;20048;-79
2021/12/01 10:02:14;;;;;;;1.63;0.70;;;;;;;5.73;75.27;96173.88;10483770;28;20486;-79
2021/12/01 10:16:43;;;;;;;1.00;0.50;;;;;;;5.91;74.14;96147.31;10393537;28;20499;-79
2021/12/01 10:22:09;;;;;;;0.65;0.40;;;;;;;5.98;73.67;96140.81;10488000;28;20043;-78
2021/12/01 10:28:00;;;;;;;0.82;0.50;;;;;;;6.00;73.88;96129.88;10492496;28;20127;-79
2021/12/01 10:41:18;;;;;;;1.20;0.73;;;;;;;6.08;72.93;96065.91;10501280;28;20123;-77
2021/12/01 10:46:52;;;;;;;2.95;0.90;;;;;;;6.16;72.64;96060.09;10474428;28;20044;-78
2021/12/01 10:52:27;;;;;;;0.93;0.60;;;;;;;6.22;72.16;96046.59;10472982;28;20051;-78
2021/12/01 10:57:55;;;;;;;0.80;0.40;;;;;;;6.22;71.79;96013.34;10488261;28;20040;-78
2021/12/01 11:03:18;;;;;;;0.93;0.40;;;;;;;6.18;71.50;95979.88;10481000;28;20037;-78
2021/12/01 11:08:42;;;;;;;1.08;0.38;;;;;;;6.21;71.49;96006.38;10430525;28;20245;-78
2021/12/01 11:14:12;;;;;;;1.52;0.40;;;;;;;6.30;70.99;95983.31;10450754;28;20068;-78
2021/12/01 11:19:35;;;;;;;1.00;0.40;;;;;;;6.39;70.58;95990.75;10480269;28;20047;-80
2021/12/01 11:25:22;;;;;;;1.70;0.40;;;;;;;6.42;70.92;95988.81;10481692;28;20056;-81
2021/12/01 11:30:48;;;;;;;1.98;0.40;;;;;;;6.52;70.39;95958.88;10471884;28;20048;-81
2021/12/01 11:36:12;;;;;;;1.38;0.40;;;;;;;6.70;69.87;95993.13;10470916;28;20040;-78
2021/12/01 11:41:36;;;;;;;1.03;0.30;;;;;;;6.85;69.58;95973.16;10456054;28;20048;-79
2021/12/01 11:47:00;;;;;;;0.82;0.35;;;;;;;6.80;69.06;95976.31;10457179;28;20044;-79
2021/12/01 11:52:30;;;;;;;1.75;0.57;;;;;;;6.77;68.86;95988.63;10470347;28;20036;-80
2021/12/01 11:57:51;;;;;;;1.40;0.40;;;;;;;6.78;68.86;96006.72;10456160;28;20040;-79
2021/12/01 12:15:55;;;;;;;0.90;0.30;;;;;;;6.95;67.87;95983.31;10668467;24;20076;-75
2021/12/01 12:21:49;;;;;;;0.98;0.40;;;;;;;6.96;67.72;95968.13;9749567;30;20056;-77
2021/12/01 12:27:06;;;;;;;3.15;0.40;;;;;;;6.98;67.70;95962.69;9765497;30;20068;-77
2021/12/01 12:32:30;;;;;;;1.35;0.40;;;;;;;6.96;67.43;95943.19;9784573;30;20489;-77
2021/12/01 12:37:52;;;;;;;1.98;0.90;;;;;;;7.04;67.30;95921.38;9773248;30;20132;-77
2021/12/01 12:43:13;;;;;;;1.30;0.60;;;;;;;7.22;67.27;95908.44;9796558;30;20048;-77
2021/12/01 12:48:43;;;;;;;1.42;0.45;;;;;;;7.60;66.74;95892.28;9784472;30;20051;-79
2021/12/01 12:54:06;;;;;;;2.15;0.50;;;;;;;8.20;65.45;95869.47;9784362;30;20136;-79
2021/12/01 12:59:33;;;;;;;1.33;0.50;;;;;;;8.58;64.13;95858.66;9796608;30;20045;-80
2021/12/01 13:05:05;;;;;;;1.38;0.50;;;;;;;8.59;63.33;95890.72;9810199;30;20113;-77
2021/12/01 13:10:44;;;;;;;1.67;0.70;;;;;;;8.62;63.65;95842.19;9803251;30;20059;-77
2021/12/01 13:16:17;;;;;;;0.88;0.40;;;;;;;8.71;62.84;95832.84;9803030;30;20056;-77
2021/12/01 13:21:51;;;;;;;2.63;0.90;;;;;;;8.60;63.11;95828.19;9803284;30;20060;-79
2021/12/01 13:27:15;;;;;;;4.45;0.60;;;;;;;8.45;62.95;95815.00;9839154;30;20048;-78
2021/12/01 13:32:37;;;;;;;1.48;0.50;;;;;;;8.24;63.18;95807.78;9815546;30;20056;-80
2021/12/01 13:38:03;;;;;;;1.50;0.60;;;;;;;8.12;63.41;95796.84;9824205;30;20088;-79
2021/12/01 13:43:24;;;;;;;1.08;0.40;;;;;;;8.05;63.50;95797.91;9832331;30;20052;-79
2021/12/01 13:48:55;;;;;;;1.95;0.50;;;;;;;7.97;63.61;95787.13;9837721;30;20138;-78
2021/12/01 13:54:21;;;;;;;3.45;0.40;;;;;;;7.88;63.43;95790.16;9841025;30;20492;-79
2021/12/01 13:59:54;;;;;;;1.38;0.52;;;;;;;7.93;64.14;95781.38;9813132;30;20052;-79
2021/12/01 14:05:17;;;;;;;1.27;0.32;;;;;;;8.12;63.57;95779.44;9825205;30;20044;-79
2021/12/01 14:10:44;;;;;;;1.10;0.55;;;;;;;8.24;63.50;95766.81;9815495;30;20503;-79
2021/12/01 14:16:05;;;;;;;3.17;0.50;;;;;;;8.20;63.21;95758.31;9812331;30;20473;-79
2021/12/01 14:21:28;;;;;;;1.60;0.50;;;;;;;8.11;63.50;95759.28;9843606;30;20034;-83
2021/12/01 14:26:59;;;;;;;1.52;0.65;;;;;;;8.03;63.42;95761.69;9813498;30;20056;-78
2021/12/01 14:32:23;;;;;;;1.33;0.50;;;;;;;8.09;63.43;95764.72;9812146;30;20068;-79
2021/12/01 14:37:44;;;;;;;2.00;0.63;;;;;;;7.97;63.47;95730.84;9812556;30;20048;-78
2021/12/01 14:43:05;;;;;;;1.52;0.80;;;;;;;7.75;63.51;95725.72;9823911;30;20067;-79
2021/12/01 14:48:32;;;;;;;2.60;0.57;;;;;;;7.52;63.89;95705.84;9811602;30;20048;-78
2021/12/01 14:53:54;;;;;;;1.80;0.60;;;;;;;7.31;64.60;95690.31;9823647;30;20050;-79
2021/12/01 14:59:16;;;;;;;2.63;0.80;;;;;;;7.19;65.10;95698.78;9823202;30;20123;-78
2021/12/01 15:04:38;;;;;;;2.90;0.68;;;;;;;7.08;64.99;95700.38;9823926;30;20064;-78
2021/12/01 15:10:17;;;;;;;2.38;0.63;;;;;;;6.99;65.46;95687.44;9824875;30;20075;-78
2021/12/01 15:15:48;;;;;;;4.15;0.60;;;;;;;6.95;65.21;95692.06;9811776;30;20447;-78
2021/12/01 15:21:19;;;;;;;1.60;0.60;;;;;;;6.99;65.65;95690.22;9824531;30;20048;-78
2021/12/01 15:26:45;;;;;;;1.92;0.60;;;;;;;7.04;65.46;95689.06;9799539;30;20052;-79
2021/12/01 15:32:54;;;;;;;1.88;0.80;;;;;;;6.99;66.18;95698.53;9828761;30;20056;-79
2021/12/01 15:38:15;;;;;;;17.17;1.00;;;;;;;7.00;65.77;95683.34;9824024;30;20044;-80
2021/12/01 15:43:39;;;;;;;1.80;0.55;;;;;;;7.04;65.89;95672.41;9823176;30;20052;-83
2021/12/01 15:49:15;;;;;;;1.50;0.50;;;;;;;7.08;66.08;95661.53;9958060;24;20444;-78
2021/12/01 15:55:05;;;;;;;2.72;0.77;;;;;;;7.20;65.97;95655.84;9771934;30;20061;-78
2021/12/01 16:01:06;;;;;;;1.45;0.70;;;;;;;7.26;65.87;95644.31;9765355;30;20052;-77
2021/12/01 16:06:58;;;;;;;0.80;0.40;;;;;;;7.29;66.06;95640.28;9780137;30;20056;-78
2021/12/01 16:20:13;;;;;;;3.38;1.00;;;;;;;7.25;66.42;95606.81;9799088;30;20056;-80
2021/12/01 16:26:04;;;;;;;2.28;0.80;;;;;;;7.27;66.38;95595.78;10611902;24;20067;-80
2021/12/01 16:31:25;;;;;;;1.85;0.95;;;;;;;7.25;66.25;95573.50;9816239;30;20048;-78
2021/12/01 16:36:46;;;;;;;2.47;0.52;;;;;;;7.28;66.41;95552.81;9825140;30;20496;-78
2021/12/01 16:42:07;;;;;;;1.70;0.52;;;;;;;7.35;66.27;95554.53;9840836;30;20049;-77
2021/12/01 16:47:28;;;;;;;0.75;0.40;;;;;;;7.40;66.12;95539.47;9816297;30;20052;-78
2021/12/01 16:52:52;;;;;;;2.20;0.80;;;;;;;7.43;66.35;95543.75;9815311;30;20131;-79
2021/12/01 16:58:13;;;;;;;2.95;1.05;;;;;;;7.49;66.16;95557.94;9827792;30;20048;-78
2021/12/01 17:09:38;;;;;;;1.48;0.65;;;;;;;7.56;66.34;95553.38;9707892;30;20050;-78
2021/12/01 17:14:59;;;;;;;2.10;0.80;;;;;;;7.59;66.44;95541.72;9799619;30;20067;-78
2021/12/01 17:20:20;;;;;;;1.65;0.63;;;;;;;7.60;66.43;95542.41;9814355;30;20110;-78
2021/12/01 17:25:41;;;;;;;1.42;0.43;;;;;;;7.57;66.74;95530.53;9801945;30;20104;-78
2021/12/01 17:31:09;;;;;;;1.85;0.70;;;;;;;7.56;66.78;95534.66;9802510;30;20075;-78
2021/12/01 17:36:31;;;;;;;2.42;0.60;;;;;;;7.59;67.13;95521.56;9791433;30;20052;-77
2021/12/01 17:41:52;;;;;;;1.35;0.55;;;;;;;7.57;67.17;95524.25;9801559;30;20053;-78
2021/12/01 17:47:21;;;;;;;2.08;1.00;;;;;;;7.53;67.48;95518.50;9803639;30;20052;-77
2021/12/01 17:52:46;;;;;;;;;;;;;;;7.52;67.80;95522.63;9803361;30;20507;-78
2021/12/01 17:58:07;;;;;;;2.00;0.80;;;;;;;7.55;67.87;95532.50;9813405;30;19933;-79
2021/12/01 18:03:28;;;;;;;2.60;0.90;;;;;;;7.62;67.67;95542.50;9813817;30;20048;-78
2021/12/01 18:08:49;;;;;;;1.70;0.80;;;;;;;7.65;67.80;95549.59;9802287;30;20052;-79
2021/12/01 18:14:10;;;;;;;5.50;1.30;;;;;;;7.71;67.91;95544.28;9813617;30;20051;-78
2021/12/01 18:19:31;;;;;;;2.30;0.90;;;;;;;7.73;67.79;95531.22;9814102;30;20052;-78
2021/12/01 18:24:52;;;;;;;3.53;0.82;;;;;;;7.75;67.92;95538.91;9813240;30;20125;-78
2021/12/01 18:30:13;;;;;;;1.60;0.68;;;;;;;7.81;67.56;95541.22;9801137;30;20044;-79
2021/12/01 18:35:34;;;;;;;1.73;0.63;;;;;;;7.82;68.13;95534.34;9824331;30;20487;-78
2021/12/01 18:40:55;;;;;;;1.70;0.90;;;;;;;7.86;67.79;95537.28;9800142;30;20055;-79
2021/12/01 18:46:17;;;;;;;1.50;0.70;;;;;;;7.87;67.91;95547.06;9813247;30;20048;-79
2021/12/01 18:51:39;;;;;;;1.40;0.80;;;;;;;7.92;67.61;95523.66;9800136;30;20048;-79
2021/12/01 18:57:27;;;;;;;2.08;0.65;;;;;;;7.92;67.56;95537.56;9809822;30;20064;-78
2021/12/01 19:03:56;;;;;;;3.60;0.60;;;;;;;7.98;67.25;95532.25;9818811;30;20052;-79
2021/12/01 19:09:18;;;;;;;1.30;0.57;;;;;;;8.01;67.32;95547.66;9811818;30;20495;-79
2021/12/01 19:14:40;;;;;;;2.35;1.23;;;;;;;8.01;67.27;95551.16;9800076;30;20131;-79
2021/12/01 19:20:00;;;;;;;1.88;0.63;;;;;;;8.02;67.25;95554.66;9812534;30;20068;-79
2021/12/01 19:25:22;;;;;;;2.00;0.68;;;;;;;8.03;67.46;95545.69;9798445;30;20434;-79
2021/12/01 19:30:43;;;;;;;3.30;1.20;;;;;;;8.02;67.22;95533.13;9798827;30;20056;-78
2021/12/01 19:36:05;;;;;;;1.73;0.60;;;;;;;8.03;67.20;95536.63;9802801;30;20055;-81
2021/12/01 19:41:55;;;;;;;2.55;0.60;;;;;;;8.06;67.53;95540.91;9818418;30;20488;-78
2021/12/01 19:47:16;;;;;;;1.42;0.70;;;;;;;8.11;67.01;95539.03;9799646;30;20049;-78
2021/12/01 19:52:37;;;;;;;1.25;0.55;;;;;;;8.12;67.33;95551.59;9810447;30;20512;-78
2021/12/01 19:57:59;;;;;;;1.02;0.40;;;;;;;8.16;66.69;95535.06;9798236;30;20089;-78
2021/12/01 20:03:20;;;;;;;2.33;0.43;;;;;;;8.19;66.58;95534.50;9822264;30;20481;-78
2021/12/01 20:08:46;;;;;;;1.58;0.40;;;;;;;8.17;66.30;95526.09;9807144;30;20052;-79
2021/12/01 20:14:08;;;;;;;1.23;0.50;;;;;;;8.18;66.38;95516.41;9797444;30;20056;-79
2021/12/01 20:19:29;;;;;;;1.02;0.40;;;;;;;8.14;66.31;95510.69;9808842;30;20419;-79
2021/12/01 20:24:51;;;;;;;1.13;0.50;;;;;;;8.14;66.48;95507.91;9797524;30;20133;-80
2021/12/01 20:30:13;;;;;;;1.33;0.65;;;;;;;8.15;66.36;95509.34;9798586;30;20045;-80
2021/12/01 20:35:40;;;;;;;1.10;0.40;;;;;;;8.14;66.10;95499.56;9785227;30;20439;-80
2021/12/01 20:41:07;;;;;;;1.38;0.30;;;;;;;8.14;66.07;95504.41;9798096;30;20102;-79
2021/12/01 20:46:33;;;;;;;1.10;0.40;;;;;;;8.16;66.17;95510.78;9796055;30;20109;-79
2021/12/01 21:03:12;;;;;;;0.77;0.45;;;;;;;8.22;65.61;95521.44;9799358;30;20052;-79
2021/12/01 21:08:37;;;;;;;0.65;0.30;;;;;;;8.20;65.73;95501.88;9796778;30;20060;-79
2021/12/01 21:14:03;;;;;;;2.78;1.23;;;;;;;8.17;65.86;95531.66;9820575;30;20109;-79
2021/12/01 21:19:27;;;;;;;1.52;0.82;;;;;;;8.14;65.58;95532.91;9797323;30;20080;-79
2021/12/01 21:24:50;;;;;;;1.13;0.57;;;;;;;8.07;65.68;95525.69;9800489;30;20056;-79
2021/12/01 21:30:11;;;;;;;1.88;0.50;;;;;;;7.83;65.67;95533.00;9802639;30;20064;-79
2021/12/01 21:35:37;;;;;;;0.73;0.30;;;;;;;7.61;66.30;95536.25;9786202;30;20052;-79
2021/12/01 21:41:03;;;;;;;0.70;0.30;;;;;;;7.45;66.78;95522.38;9802874;30;20057;-79
2021/12/01 21:46:26;;;;;;;0.35;0.20;;;;;;;7.56;66.82;95531.88;9803139;30;20135;-79
2021/12/01 21:51:46;;;;;;;0.85;0.20;;;;;;;7.63;66.29;95536.34;9798130;30;20148;-79
2021/12/01 21:57:09;;;;;;;1.15;0.30;;;;;;;7.70;66.45;95534.53;9800841;30;20051;-79
2021/12/01 22:02:32;;;;;;;0.82;0.20;;;;;;;7.79;66.38;95532.81;9788883;30;20109;-79
2021/12/01 22:07:53;;;;;;;0.45;0.20;;;;;;;7.75;66.26;95536.88;9777640;30;20057;-79
2021/12/01 22:13:17;;;;;;;1.02;0.20;;;;;;;7.57;66.48;95530.53;9778708;30;20528;-79
2021/12/01 22:18:47;;;;;;;0.20;0.10;;;;;;;7.51;66.61;95538.56;9780265;30;20066;-79
2021/12/01 22:24:10;;;;;;;0.40;0.10;;;;;;;7.58;66.59;95547.91;9777169;30;20045;-79
2021/12/01 22:29:33;;;;;;;0.53;0.20;;;;;;;7.63;66.60;95532.84;9765835;30;20088;-79
2021/12/01 22:35:02;;;;;;;0.55;0.15;;;;;;;7.60;66.22;95534.81;9778094;30;20052;-79
2021/12/01 22:40:25;;;;;;;0.28;0.17;;;;;;;7.60;66.35;95548.69;9777247;30;20053;-79
2021/12/01 22:45:52;;;;;;;0.70;0.20;;;;;;;7.42;66.16;95581.91;9777345;30;20479;-79
2021/12/01 22:51:13;;;;;;;0.75;0.20;;;;;;;7.34;66.29;95562.16;9777016;30;20083;-79
2021/12/01 22:56:38;;;;;;;2.15;0.20;;;;;;;7.21;66.42;95579.56;9775423;30;20137;-79
2021/12/01 23:01:59;;;;;;;0.20;0.10;;;;;;;7.22;66.14;95581.00;9776355;30;20051;-79
2021/12/01 23:07:23;;;;;;;0.40;0.20;;;;;;;7.34;66.58;95586.41;9762740;30;20511;-79
2021/12/01 23:12:44;;;;;;;0.40;0.13;;;;;;;7.39;66.93;95588.00;9775066;30;20057;-79
2021/12/01 23:18:07;;;;;;;0.20;0.10;;;;;;;7.37;66.84;95596.25;9774307;30;20151;-79
2021/12/01 23:28:54;;;;;;;0.30;0.20;;;;;;;7.23;66.53;95571.34;9774405;30;20056;-79
2021/12/01 23:34:15;;;;;;;0.60;0.17;;;;;;;7.05;66.89;95578.84;9761992;30;20123;-79
2021/12/01 23:39:38;;;;;;;1.00;0.20;;;;;;;6.86;66.85;95580.06;9761307;30;20492;-79
2021/12/01 23:45:06;;;;;;;0.93;0.10;;;;;;;6.77;67.02;95603.91;9761144;30;20057;-79
2021/12/01 23:56:06;;;;;;;1.88;0.20;;;;;;;6.96;66.28;95602.72;9777566;30;20114;-79
